Terminal Aerodrome Forecast
Issued by NWS St Louis, MO

Home | Current Version | Previous Version | Text Only | Print | Product List | Glossary On
Versions: 1 2 3 4 5 6 7 8 9 10 11 12 13 14 15 16 17 18 19 20 21
000
FTUS43 KLSX 221720
TAFCOU
TAF
KCOU 221720Z 2218/2318 34014KT 5SM -RA BR SCT015 BKN035
     FM221900 33009KT P6SM BKN050
     FM222100 33008KT P6SM SCT120
     FM230000 VRB04KT P6SM FEW200
     FM230900 00000KT 3SM BR FEW250
     FM231400 22007KT P6SM FEW250=

USA.gov is the U.S. government's official web portal to all federal, state and local government web resources and services.